sensor_id;sensor_type;location;lat;lon;timestamp;temperature;humidity
19164;DHT22;9714;51.208;4.242;2023-12-20T00:01:45;7.80;99.90
19164;DHT22;9714;51.208;4.242;2023-12-20T00:04:14;7.90;99.90
19164;DHT22;9714;51.208;4.242;2023-12-20T00:06:41;7.80;99.90
19164;DHT22;9714;51.208;4.242;2023-12-20T00:12:31;7.70;99.90
19164;DHT22;9714;51.208;4.242;2023-12-20T00:14:58;7.60;99.90
19164;DHT22;9714;51.208;4.242;2023-12-20T00:17:25;7.70;99.90
19164;DHT22;9714;51.208;4.242;2023-12-20T00:19:54;7.70;99.90
19164;DHT22;9714;51.208;4.242;2023-12-20T00:22:22;7.80;99.90
19164;DHT22;9714;51.208;4.242;2023-12-20T00:24:49;7.80;99.90
19164;DHT22;9714;51.208;4.242;2023-12-20T00:27:19;7.80;99.90
19164;DHT22;9714;51.208;4.242;2023-12-20T00:29:49;7.80;99.90
19164;DHT22;9714;51.208;4.242;2023-12-20T00:32:17;7.90;99.90
19164;DHT22;9714;51.208;4.242;2023-12-20T00:34:44;7.90;99.90
19164;DHT22;9714;51.208;4.242;2023-12-20T00:37:13;7.80;99.90
19164;DHT22;9714;51.208;4.242;2023-12-20T00:39:40;7.90;99.90
19164;DHT22;9714;51.208;4.242;2023-12-20T00:42:08;7.70;99.90
19164;DHT22;9714;51.208;4.242;2023-12-20T00:44:35;7.70;99.90
19164;DHT22;9714;51.208;4.242;2023-12-20T00:47:04;7.70;99.90
19164;DHT22;9714;51.208;4.242;2023-12-20T00:49:32;7.70;99.90
19164;DHT22;9714;51.208;4.242;2023-12-20T00:51:59;7.70;99.90
19164;DHT22;9714;51.208;4.242;2023-12-20T00:54:28;7.70;99.90
19164;DHT22;9714;51.208;4.242;2023-12-20T00:56:56;7.70;99.90
19164;DHT22;9714;51.208;4.242;2023-12-20T00:59:23;7.70;99.90
19164;DHT22;9714;51.208;4.242;2023-12-20T01:01:51;7.70;99.90
19164;DHT22;9714;51.208;4.242;2023-12-20T01:04:19;7.70;99.90
19164;DHT22;9714;51.208;4.242;2023-12-20T01:06:49;7.70;99.90
19164;DHT22;9714;51.208;4.242;2023-12-20T01:09:17;7.70;99.90
19164;DHT22;9714;51.208;4.242;2023-12-20T01:11:46;7.60;99.90
19164;DHT22;9714;51.208;4.242;2023-12-20T01:14:14;7.50;99.90
19164;DHT22;9714;51.208;4.242;2023-12-20T01:16:41;7.60;99.90
19164;DHT22;9714;51.208;4.242;2023-12-20T01:19:10;7.50;99.90
19164;DHT22;9714;51.208;4.242;2023-12-20T01:21:39;7.60;99.90
19164;DHT22;9714;51.208;4.242;2023-12-20T01:24:06;7.60;99.90
19164;DHT22;9714;51.208;4.242;2023-12-20T01:26:33;7.70;99.90
19164;DHT22;9714;51.208;4.242;2023-12-20T01:29:02;7.70;99.90
19164;DHT22;9714;51.208;4.242;2023-12-20T01:31:29;7.80;99.90
19164;DHT22;9714;51.208;4.242;2023-12-20T01:33:56;7.70;99.90
19164;DHT22;9714;51.208;4.242;2023-12-20T01:36:23;7.70;99.90
19164;DHT22;9714;51.208;4.242;2023-12-20T01:38:51;7.70;99.90
19164;DHT22;9714;51.208;4.242;2023-12-20T01:41:18;7.80;99.90
19164;DHT22;9714;51.208;4.242;2023-12-20T01:43:45;7.80;99.90
19164;DHT22;9714;51.208;4.242;2023-12-20T01:46:14;7.80;99.90
19164;DHT22;9714;51.208;4.242;2023-12-20T01:48:43;7.70;99.90
19164;DHT22;9714;51.208;4.242;2023-12-20T01:51:11;7.80;99.90
19164;DHT22;9714;51.208;4.242;2023-12-20T01:53:39;7.80;99.90
19164;DHT22;9714;51.208;4.242;2023-12-20T01:56:07;7.70;99.90
19164;DHT22;9714;51.208;4.242;2023-12-20T01:58:37;7.80;99.90
19164;DHT22;9714;51.208;4.242;2023-12-20T02:01:07;7.90;99.90
19164;DHT22;9714;51.208;4.242;2023-12-20T02:03:37;7.80;99.90
19164;DHT22;9714;51.208;4.242;2023-12-20T02:06:05;7.90;99.90
19164;DHT22;9714;51.208;4.242;2023-12-20T02:08:32;7.90;99.90
19164;DHT22;9714;51.208;4.242;2023-12-20T02:11:00;8.10;99.90
19164;DHT22;9714;51.208;4.242;2023-12-20T02:13:27;8.00;99.90
19164;DHT22;9714;51.208;4.242;2023-12-20T02:15:55;7.90;99.90
19164;DHT22;9714;51.208;4.242;2023-12-20T02:18:22;7.90;99.90
19164;DHT22;9714;51.208;4.242;2023-12-20T02:20:51;8.00;99.90
19164;DHT22;9714;51.208;4.242;2023-12-20T02:23:20;8.00;99.90
19164;DHT22;9714;51.208;4.242;2023-12-20T02:25:47;8.10;99.90
19164;DHT22;9714;51.208;4.242;2023-12-20T02:28:16;8.20;99.90
19164;DHT22;9714;51.208;4.242;2023-12-20T02:30:43;8.20;99.90
19164;DHT22;9714;51.208;4.242;2023-12-20T02:33:12;8.20;99.90
19164;DHT22;9714;51.208;4.242;2023-12-20T02:35:41;8.20;99.90
19164;DHT22;9714;51.208;4.242;2023-12-20T02:38:08;8.10;99.90
19164;DHT22;9714;51.208;4.242;2023-12-20T02:40:37;8.20;99.90
19164;DHT22;9714;51.208;4.242;2023-12-20T02:43:04;8.20;99.90
19164;DHT22;9714;51.208;4.242;2023-12-20T02:45:32;8.20;99.90
19164;DHT22;9714;51.208;4.242;2023-12-20T02:47:59;8.10;99.90
19164;DHT22;9714;51.208;4.242;2023-12-20T02:50:26;8.00;99.90
19164;DHT22;9714;51.208;4.242;2023-12-20T02:52:54;8.00;99.90
19164;DHT22;9714;51.208;4.242;2023-12-20T02:55:21;8.10;99.90
19164;DHT22;9714;51.208;4.242;2023-12-20T02:57:50;8.10;99.90
19164;DHT22;9714;51.208;4.242;2023-12-20T03:00:17;8.10;99.90
19164;DHT22;9714;51.208;4.242;2023-12-20T03:02:45;8.20;99.90
19164;DHT22;9714;51.208;4.242;2023-12-20T03:05:12;8.10;99.90
19164;DHT22;9714;51.208;4.242;2023-12-20T03:07:39;8.20;99.90
19164;DHT22;9714;51.208;4.242;2023-12-20T03:10:07;8.20;99.90
19164;DHT22;9714;51.208;4.242;2023-12-20T03:12:35;8.00;99.90
19164;DHT22;9714;51.208;4.242;2023-12-20T03:15:07;7.80;99.90
19164;DHT22;9714;51.208;4.242;2023-12-20T03:17:35;7.70;99.90
19164;DHT22;9714;51.208;4.242;2023-12-20T03:20:04;7.80;99.90
19164;DHT22;9714;51.208;4.242;2023-12-20T03:22:32;7.70;99.90
19164;DHT22;9714;51.208;4.242;2023-12-20T03:24:59;7.60;99.90
19164;DHT22;9714;51.208;4.242;2023-12-20T03:27:26;7.80;99.90
19164;DHT22;9714;51.208;4.242;2023-12-20T03:29:54;7.80;99.90
19164;DHT22;9714;51.208;4.242;2023-12-20T03:32:24;7.70;99.90
19164;DHT22;9714;51.208;4.242;2023-12-20T03:34:51;7.80;99.90
19164;DHT22;9714;51.208;4.242;2023-12-20T03:37:19;7.80;99.90
19164;DHT22;9714;51.208;4.242;2023-12-20T03:39:46;7.90;99.90
19164;DHT22;9714;51.208;4.242;2023-12-20T03:42:13;7.90;99.90
19164;DHT22;9714;51.208;4.242;2023-12-20T03:44:42;7.80;99.90
19164;DHT22;9714;51.208;4.242;2023-12-20T03:47:09;7.70;99.90
19164;DHT22;9714;51.208;4.242;2023-12-20T03:49:39;7.70;99.90
19164;DHT22;9714;51.208;4.242;2023-12-20T03:52:07;7.60;99.90
19164;DHT22;9714;51.208;4.242;2023-12-20T03:54:35;7.60;99.90
19164;DHT22;9714;51.208;4.242;2023-12-20T03:57:03;7.80;99.90
19164;DHT22;9714;51.208;4.242;2023-12-20T03:59:35;7.60;99.90
19164;DHT22;9714;51.208;4.242;2023-12-20T04:02:04;7.60;99.90
19164;DHT22;9714;51.208;4.242;2023-12-20T04:04:31;7.70;99.90
19164;DHT22;9714;51.208;4.242;2023-12-20T04:07:00;7.70;99.90
19164;DHT22;9714;51.208;4.242;2023-12-20T04:09:27;7.70;99.90
19164;DHT22;9714;51.208;4.242;2023-12-20T04:11:55;7.80;99.90
19164;DHT22;9714;51.208;4.242;2023-12-20T04:14:23;7.70;99.90
19164;DHT22;9714;51.208;4.242;2023-12-20T04:16:50;7.80;99.90
19164;DHT22;9714;51.208;4.242;2023-12-20T04:19:18;7.70;99.90
19164;DHT22;9714;51.208;4.242;2023-12-20T04:21:46;7.70;99.90
19164;DHT22;9714;51.208;4.242;2023-12-20T04:24:16;7.70;99.90
19164;DHT22;9714;51.208;4.242;2023-12-20T04:26:44;7.60;99.90
19164;DHT22;9714;51.208;4.242;2023-12-20T04:29:13;7.60;99.90
19164;DHT22;9714;51.208;4.242;2023-12-20T04:31:40;7.70;99.90
19164;DHT22;9714;51.208;4.242;2023-12-20T04:34:07;7.70;99.90
19164;DHT22;9714;51.208;4.242;2023-12-20T04:36:35;7.50;99.90
19164;DHT22;9714;51.208;4.242;2023-12-20T04:39:02;7.60;99.90
19164;DHT22;9714;51.208;4.242;2023-12-20T04:41:31;7.60;99.90
19164;DHT22;9714;51.208;4.242;2023-12-20T04:43:59;7.50;99.90
19164;DHT22;9714;51.208;4.242;2023-12-20T04:46:26;7.40;99.90
19164;DHT22;9714;51.208;4.242;2023-12-20T04:48:54;7.30;99.90
19164;DHT22;9714;51.208;4.242;2023-12-20T04:51:22;7.30;99.90
19164;DHT22;9714;51.208;4.242;2023-12-20T04:53:50;7.40;99.90
19164;DHT22;9714;51.208;4.242;2023-12-20T04:56:17;7.30;99.90
19164;DHT22;9714;51.208;4.242;2023-12-20T04:58:46;7.30;99.90
19164;DHT22;9714;51.208;4.242;2023-12-20T05:01:15;7.30;99.90
19164;DHT22;9714;51.208;4.242;2023-12-20T05:03:42;7.30;99.90
19164;DHT22;9714;51.208;4.242;2023-12-20T05:06:10;7.40;99.90
19164;DHT22;9714;51.208;4.242;2023-12-20T05:08:37;7.30;99.90
19164;DHT22;9714;51.208;4.242;2023-12-20T05:11:04;7.20;99.90
19164;DHT22;9714;51.208;4.242;2023-12-20T05:13:32;7.30;99.90
19164;DHT22;9714;51.208;4.242;2023-12-20T05:16:01;7.30;99.90
19164;DHT22;9714;51.208;4.242;2023-12-20T05:18:29;7.30;99.90
19164;DHT22;9714;51.208;4.242;2023-12-20T05:20:56;7.40;99.90
19164;DHT22;9714;51.208;4.242;2023-12-20T05:23:23;7.20;99.90
19164;DHT22;9714;51.208;4.242;2023-12-20T05:25:50;7.10;99.90
19164;DHT22;9714;51.208;4.242;2023-12-20T05:28:20;7.10;99.90
19164;DHT22;9714;51.208;4.242;2023-12-20T05:30:48;7.20;99.90
19164;DHT22;9714;51.208;4.242;2023-12-20T05:33:16;7.20;99.90
19164;DHT22;9714;51.208;4.242;2023-12-20T05:35:44;7.20;99.90
19164;DHT22;9714;51.208;4.242;2023-12-20T05:38:12;7.20;99.90
19164;DHT22;9714;51.208;4.242;2023-12-20T05:40:39;7.30;99.90
19164;DHT22;9714;51.208;4.242;2023-12-20T05:43:10;7.40;99.90
19164;DHT22;9714;51.208;4.242;2023-12-20T05:45:37;7.60;99.90
19164;DHT22;9714;51.208;4.242;2023-12-20T05:48:05;7.60;99.90
19164;DHT22;9714;51.208;4.242;2023-12-20T05:50:33;7.70;99.90
19164;DHT22;9714;51.208;4.242;2023-12-20T05:53:02;7.80;99.90
19164;DHT22;9714;51.208;4.242;2023-12-20T05:55:29;8.00;99.90
19164;DHT22;9714;51.208;4.242;2023-12-20T05:57:57;7.80;99.90
19164;DHT22;9714;51.208;4.242;2023-12-20T06:00:25;7.90;99.90
19164;DHT22;9714;51.208;4.242;2023-12-20T06:02:52;7.80;99.90
19164;DHT22;9714;51.208;4.242;2023-12-20T06:05:19;7.80;99.90
19164;DHT22;9714;51.208;4.242;2023-12-20T06:07:48;7.80;99.90
19164;DHT22;9714;51.208;4.242;2023-12-20T06:10:16;7.90;99.90
19164;DHT22;9714;51.208;4.242;2023-12-20T06:12:45;7.90;99.90
19164;DHT22;9714;51.208;4.242;2023-12-20T06:15:14;7.90;99.90
19164;DHT22;9714;51.208;4.242;2023-12-20T06:17:41;8.00;99.90
19164;DHT22;9714;51.208;4.242;2023-12-20T06:20:10;8.00;99.90
19164;DHT22;9714;51.208;4.242;2023-12-20T06:22:39;8.10;99.90
19164;DHT22;9714;51.208;4.242;2023-12-20T06:25:08;8.00;99.90
19164;DHT22;9714;51.208;4.242;2023-12-20T06:27:35;8.00;99.90
19164;DHT22;9714;51.208;4.242;2023-12-20T06:30:04;7.90;99.90
19164;DHT22;9714;51.208;4.242;2023-12-20T06:32:35;8.10;99.90
19164;DHT22;9714;51.208;4.242;2023-12-20T06:35:04;8.10;99.90
19164;DHT22;9714;51.208;4.242;2023-12-20T06:37:32;8.20;99.90
19164;DHT22;9714;51.208;4.242;2023-12-20T06:39:59;8.00;99.90
19164;DHT22;9714;51.208;4.242;2023-12-20T06:42:30;8.00;99.90
19164;DHT22;9714;51.208;4.242;2023-12-20T06:44:58;7.90;99.90
19164;DHT22;9714;51.208;4.242;2023-12-20T06:47:25;7.90;99.90
19164;DHT22;9714;51.208;4.242;2023-12-20T06:49:52;7.90;99.90
19164;DHT22;9714;51.208;4.242;2023-12-20T06:52:19;7.90;99.90
19164;DHT22;9714;51.208;4.242;2023-12-20T06:54:47;7.80;99.90
19164;DHT22;9714;51.208;4.242;2023-12-20T06:57:14;7.90;99.90
19164;DHT22;9714;51.208;4.242;2023-12-20T06:59:43;7.80;99.90
19164;DHT22;9714;51.208;4.242;2023-12-20T07:02:10;7.80;99.90
19164;DHT22;9714;51.208;4.242;2023-12-20T07:04:39;7.90;99.90
19164;DHT22;9714;51.208;4.242;2023-12-20T07:07:06;7.80;99.90
19164;DHT22;9714;51.208;4.242;2023-12-20T07:09:37;7.60;99.90
19164;DHT22;9714;51.208;4.242;2023-12-20T07:12:05;7.50;99.90
19164;DHT22;9714;51.208;4.242;2023-12-20T07:14:32;7.60;99.90
19164;DHT22;9714;51.208;4.242;2023-12-20T07:17:01;7.50;99.90
19164;DHT22;9714;51.208;4.242;2023-12-20T07:19:28;7.50;99.90
19164;DHT22;9714;51.208;4.242;2023-12-20T07:21:56;7.50;99.90
19164;DHT22;9714;51.208;4.242;2023-12-20T07:24:23;7.50;99.90
19164;DHT22;9714;51.208;4.242;2023-12-20T07:26:51;7.40;99.90
19164;DHT22;9714;51.208;4.242;2023-12-20T07:29:20;7.30;99.90
19164;DHT22;9714;51.208;4.242;2023-12-20T07:31:48;7.30;99.90
19164;DHT22;9714;51.208;4.242;2023-12-20T07:34:19;7.30;99.90
19164;DHT22;9714;51.208;4.242;2023-12-20T07:36:46;7.10;99.90
19164;DHT22;9714;51.208;4.242;2023-12-20T07:39:14;7.20;99.90
19164;DHT22;9714;51.208;4.242;2023-12-20T07:41:42;7.10;99.90
19164;DHT22;9714;51.208;4.242;2023-12-20T07:44:09;7.30;99.90
19164;DHT22;9714;51.208;4.242;2023-12-20T07:46:39;7.20;99.90
19164;DHT22;9714;51.208;4.242;2023-12-20T07:49:09;7.20;99.90
19164;DHT22;9714;51.208;4.242;2023-12-20T07:51:52;7.20;99.90
19164;DHT22;9714;51.208;4.242;2023-12-20T07:54:20;7.30;99.90
19164;DHT22;9714;51.208;4.242;2023-12-20T07:56:49;7.20;99.90
19164;DHT22;9714;51.208;4.242;2023-12-20T07:59:17;7.10;99.90
19164;DHT22;9714;51.208;4.242;2023-12-20T08:01:48;7.30;99.90
19164;DHT22;9714;51.208;4.242;2023-12-20T08:04:15;7.20;99.90
19164;DHT22;9714;51.208;4.242;2023-12-20T08:06:49;7.40;99.90
19164;DHT22;9714;51.208;4.242;2023-12-20T08:09:23;7.50;99.90
19164;DHT22;9714;51.208;4.242;2023-12-20T08:11:58;7.50;99.90
19164;DHT22;9714;51.208;4.242;2023-12-20T08:14:26;7.40;99.90
19164;DHT22;9714;51.208;4.242;2023-12-20T08:16:54;7.40;99.90
19164;DHT22;9714;51.208;4.242;2023-12-20T08:19:21;7.30;99.90
19164;DHT22;9714;51.208;4.242;2023-12-20T08:21:48;7.30;99.90
19164;DHT22;9714;51.208;4.242;2023-12-20T08:24:15;7.20;99.90
19164;DHT22;9714;51.208;4.242;2023-12-20T08:26:44;7.30;99.90
19164;DHT22;9714;51.208;4.242;2023-12-20T08:29:17;7.30;99.90
19164;DHT22;9714;51.208;4.242;2023-12-20T08:31:44;7.40;99.90
19164;DHT22;9714;51.208;4.242;2023-12-20T08:34:12;7.30;99.90
19164;DHT22;9714;51.208;4.242;2023-12-20T08:36:46;7.40;99.90
19164;DHT22;9714;51.208;4.242;2023-12-20T08:39:14;7.30;99.90
19164;DHT22;9714;51.208;4.242;2023-12-20T08:41:44;7.50;99.90
19164;DHT22;9714;51.208;4.242;2023-12-20T08:44:11;7.40;99.90
19164;DHT22;9714;51.208;4.242;2023-12-20T08:46:40;7.40;99.90
19164;DHT22;9714;51.208;4.242;2023-12-20T08:49:08;7.50;99.90
19164;DHT22;9714;51.208;4.242;2023-12-20T08:51:37;7.50;99.90
19164;DHT22;9714;51.208;4.242;2023-12-20T08:54:06;7.60;99.90
19164;DHT22;9714;51.208;4.242;2023-12-20T08:56:36;7.60;99.90
19164;DHT22;9714;51.208;4.242;2023-12-20T08:59:05;7.60;99.90
19164;DHT22;9714;51.208;4.242;2023-12-20T09:01:32;7.80;99.90
19164;DHT22;9714;51.208;4.242;2023-12-20T09:03:59;7.70;99.90
19164;DHT22;9714;51.208;4.242;2023-12-20T09:06:30;7.70;99.90
19164;DHT22;9714;51.208;4.242;2023-12-20T09:08:58;7.80;99.90
19164;DHT22;9714;51.208;4.242;2023-12-20T09:11:27;8.00;99.90
19164;DHT22;9714;51.208;4.242;2023-12-20T09:13:55;8.00;99.90
19164;DHT22;9714;51.208;4.242;2023-12-20T09:16:24;8.10;99.90
19164;DHT22;9714;51.208;4.242;2023-12-20T09:18:53;8.20;99.90
19164;DHT22;9714;51.208;4.242;2023-12-20T09:21:23;8.10;99.90
19164;DHT22;9714;51.208;4.242;2023-12-20T09:23:53;8.30;99.90
19164;DHT22;9714;51.208;4.242;2023-12-20T09:26:20;8.40;99.90
19164;DHT22;9714;51.208;4.242;2023-12-20T09:28:49;8.60;99.90
19164;DHT22;9714;51.208;4.242;2023-12-20T09:31:16;8.60;99.90
19164;DHT22;9714;51.208;4.242;2023-12-20T09:33:45;8.80;99.90
19164;DHT22;9714;51.208;4.242;2023-12-20T09:36:13;8.90;99.90
19164;DHT22;9714;51.208;4.242;2023-12-20T09:38:41;9.00;99.90
19164;DHT22;9714;51.208;4.242;2023-12-20T09:41:09;9.00;99.90
19164;DHT22;9714;51.208;4.242;2023-12-20T09:43:37;9.10;99.90
19164;DHT22;9714;51.208;4.242;2023-12-20T09:46:06;9.10;99.90
19164;DHT22;9714;51.208;4.242;2023-12-20T09:48:34;9.00;99.90
19164;DHT22;9714;51.208;4.242;2023-12-20T09:51:07;9.00;99.90
19164;DHT22;9714;51.208;4.242;2023-12-20T09:53:37;9.10;99.90
19164;DHT22;9714;51.208;4.242;2023-12-20T09:56:06;9.10;99.90
19164;DHT22;9714;51.208;4.242;2023-12-20T09:58:36;9.20;99.90
19164;DHT22;9714;51.208;4.242;2023-12-20T10:01:05;9.20;99.90
19164;DHT22;9714;51.208;4.242;2023-12-20T10:03:38;9.00;99.90
19164;DHT22;9714;51.208;4.242;2023-12-20T10:06:10;9.00;99.90
19164;DHT22;9714;51.208;4.242;2023-12-20T10:08:38;8.90;99.90
19164;DHT22;9714;51.208;4.242;2023-12-20T10:11:11;9.00;99.90
19164;DHT22;9714;51.208;4.242;2023-12-20T10:13:40;9.00;99.90
19164;DHT22;9714;51.208;4.242;2023-12-20T10:16:10;9.00;99.90
19164;DHT22;9714;51.208;4.242;2023-12-20T10:18:41;9.00;99.90
19164;DHT22;9714;51.208;4.242;2023-12-20T10:21:09;9.10;99.90
19164;DHT22;9714;51.208;4.242;2023-12-20T10:23:37;9.00;99.90
19164;DHT22;9714;51.208;4.242;2023-12-20T10:26:09;9.10;99.90
19164;DHT22;9714;51.208;4.242;2023-12-20T10:28:41;9.10;99.90
19164;DHT22;9714;51.208;4.242;2023-12-20T10:31:26;9.10;99.90
19164;DHT22;9714;51.208;4.242;2023-12-20T10:33:56;9.20;99.90
19164;DHT22;9714;51.208;4.242;2023-12-20T10:36:25;9.10;99.90
19164;DHT22;9714;51.208;4.242;2023-12-20T10:38:57;9.00;99.90
19164;DHT22;9714;51.208;4.242;2023-12-20T10:41:26;9.20;99.90
19164;DHT22;9714;51.208;4.242;2023-12-20T10:43:58;9.00;99.90
19164;DHT22;9714;51.208;4.242;2023-12-20T10:46:27;9.10;99.90
19164;DHT22;9714;51.208;4.242;2023-12-20T10:48:56;9.00;99.90
19164;DHT22;9714;51.208;4.242;2023-12-20T10:51:25;9.00;99.90
19164;DHT22;9714;51.208;4.242;2023-12-20T10:53:57;9.00;99.90
19164;DHT22;9714;51.208;4.242;2023-12-20T10:56:25;9.10;99.90
19164;DHT22;9714;51.208;4.242;2023-12-20T10:58:56;9.10;99.90
19164;DHT22;9714;51.208;4.242;2023-12-20T11:01:27;9.00;99.90
19164;DHT22;9714;51.208;4.242;2023-12-20T11:03:56;9.10;99.90
19164;DHT22;9714;51.208;4.242;2023-12-20T11:06:33;9.10;99.90
19164;DHT22;9714;51.208;4.242;2023-12-20T11:09:11;9.30;99.90
19164;DHT22;9714;51.208;4.242;2023-12-20T11:12:02;9.30;99.90
19164;DHT22;9714;51.208;4.242;2023-12-20T11:14:39;9.20;99.90
19164;DHT22;9714;51.208;4.242;2023-12-20T11:17:25;9.10;99.90
19164;DHT22;9714;51.208;4.242;2023-12-20T11:20:11;9.00;99.90
19164;DHT22;9714;51.208;4.242;2023-12-20T11:22:59;9.10;99.90
19164;DHT22;9714;51.208;4.242;2023-12-20T11:25:27;9.00;99.90
19164;DHT22;9714;51.208;4.242;2023-12-20T11:28:10;8.90;99.90
19164;DHT22;9714;51.208;4.242;2023-12-20T11:30:52;9.00;99.90
19164;DHT22;9714;51.208;4.242;2023-12-20T11:33:22;8.90;99.90
19164;DHT22;9714;51.208;4.242;2023-12-20T11:35:55;8.90;99.90
19164;DHT22;9714;51.208;4.242;2023-12-20T11:38:25;9.00;99.90
19164;DHT22;9714;51.208;4.242;2023-12-20T11:41:05;8.90;99.90
19164;DHT22;9714;51.208;4.242;2023-12-20T11:43:41;9.10;99.90
19164;DHT22;9714;51.208;4.242;2023-12-20T11:46:09;9.20;99.90
19164;DHT22;9714;51.208;4.242;2023-12-20T11:48:54;9.20;99.90
19164;DHT22;9714;51.208;4.242;2023-12-20T11:51:22;9.20;99.90
19164;DHT22;9714;51.208;4.242;2023-12-20T11:53:53;9.30;99.90
19164;DHT22;9714;51.208;4.242;2023-12-20T11:56:21;9.30;99.90
19164;DHT22;9714;51.208;4.242;2023-12-20T11:58:51;9.30;99.90
19164;DHT22;9714;51.208;4.242;2023-12-20T12:01:28;9.50;99.90
19164;DHT22;9714;51.208;4.242;2023-12-20T12:04:07;9.50;99.90
19164;DHT22;9714;51.208;4.242;2023-12-20T12:06:40;9.50;99.90
19164;DHT22;9714;51.208;4.242;2023-12-20T12:09:12;9.50;99.90
19164;DHT22;9714;51.208;4.242;2023-12-20T12:11:49;9.60;99.90
19164;DHT22;9714;51.208;4.242;2023-12-20T12:14:17;9.60;99.90
19164;DHT22;9714;51.208;4.242;2023-12-20T12:16:49;9.50;99.90
19164;DHT22;9714;51.208;4.242;2023-12-20T12:19:22;9.50;99.90
19164;DHT22;9714;51.208;4.242;2023-12-20T12:21:50;9.50;99.90
19164;DHT22;9714;51.208;4.242;2023-12-20T12:24:21;9.50;99.90
19164;DHT22;9714;51.208;4.242;2023-12-20T12:26:52;9.60;99.90
19164;DHT22;9714;51.208;4.242;2023-12-20T12:29:19;9.70;99.90
19164;DHT22;9714;51.208;4.242;2023-12-20T12:31:47;9.70;99.90
19164;DHT22;9714;51.208;4.242;2023-12-20T12:34:15;9.80;99.90
19164;DHT22;9714;51.208;4.242;2023-12-20T12:36:44;9.70;99.90
19164;DHT22;9714;51.208;4.242;2023-12-20T12:39:12;9.60;99.90
19164;DHT22;9714;51.208;4.242;2023-12-20T12:41:47;9.90;99.90
19164;DHT22;9714;51.208;4.242;2023-12-20T12:44:14;9.90;99.90
19164;DHT22;9714;51.208;4.242;2023-12-20T12:46:43;9.80;99.90
19164;DHT22;9714;51.208;4.242;2023-12-20T12:49:12;9.80;99.90
19164;DHT22;9714;51.208;4.242;2023-12-20T12:51:42;9.80;99.90
19164;DHT22;9714;51.208;4.242;2023-12-20T12:54:12;9.90;99.90
19164;DHT22;9714;51.208;4.242;2023-12-20T12:56:43;9.90;99.90
19164;DHT22;9714;51.208;4.242;2023-12-20T12:59:12;9.90;99.90
19164;DHT22;9714;51.208;4.242;2023-12-20T13:01:57;9.90;99.90
19164;DHT22;9714;51.208;4.242;2023-12-20T13:04:39;10.00;99.90
19164;DHT22;9714;51.208;4.242;2023-12-20T13:07:10;10.10;99.90
19164;DHT22;9714;51.208;4.242;2023-12-20T13:09:40;10.10;99.90
19164;DHT22;9714;51.208;4.242;2023-12-20T13:12:09;9.90;99.90
19164;DHT22;9714;51.208;4.242;2023-12-20T13:14:36;10.20;99.90
19164;DHT22;9714;51.208;4.242;2023-12-20T13:17:04;10.00;99.90
19164;DHT22;9714;51.208;4.242;2023-12-20T13:19:39;10.20;99.90
19164;DHT22;9714;51.208;4.242;2023-12-20T13:22:08;10.20;99.90
19164;DHT22;9714;51.208;4.242;2023-12-20T13:24:36;10.10;99.90
19164;DHT22;9714;51.208;4.242;2023-12-20T13:27:03;10.10;99.90
19164;DHT22;9714;51.208;4.242;2023-12-20T13:29:34;10.10;99.90
19164;DHT22;9714;51.208;4.242;2023-12-20T13:32:02;10.10;99.90
19164;DHT22;9714;51.208;4.242;2023-12-20T13:34:29;10.20;99.90
19164;DHT22;9714;51.208;4.242;2023-12-20T13:36:57;10.10;99.90
19164;DHT22;9714;51.208;4.242;2023-12-20T13:39:24;10.10;99.90
19164;DHT22;9714;51.208;4.242;2023-12-20T13:41:51;10.20;99.90
19164;DHT22;9714;51.208;4.242;2023-12-20T13:44:19;10.20;99.90
19164;DHT22;9714;51.208;4.242;2023-12-20T13:46:47;10.10;99.90
19164;DHT22;9714;51.208;4.242;2023-12-20T13:49:16;10.10;99.90
19164;DHT22;9714;51.208;4.242;2023-12-20T13:51:44;10.00;99.90
19164;DHT22;9714;51.208;4.242;2023-12-20T13:54:13;10.00;99.90
19164;DHT22;9714;51.208;4.242;2023-12-20T13:56:43;10.10;99.90
19164;DHT22;9714;51.208;4.242;2023-12-20T13:59:10;10.10;99.90
19164;DHT22;9714;51.208;4.242;2023-12-20T14:01:38;10.20;99.90
19164;DHT22;9714;51.208;4.242;2023-12-20T14:04:07;10.00;99.90
19164;DHT22;9714;51.208;4.242;2023-12-20T14:06:38;10.10;99.90
19164;DHT22;9714;51.208;4.242;2023-12-20T14:09:11;10.20;99.90
19164;DHT22;9714;51.208;4.242;2023-12-20T14:11:40;10.30;99.90
19164;DHT22;9714;51.208;4.242;2023-12-20T14:14:08;10.20;99.90
19164;DHT22;9714;51.208;4.242;2023-12-20T14:16:42;10.20;99.90
19164;DHT22;9714;51.208;4.242;2023-12-20T14:19:14;10.20;99.90
19164;DHT22;9714;51.208;4.242;2023-12-20T14:21:41;10.30;99.90
19164;DHT22;9714;51.208;4.242;2023-12-20T14:24:11;10.40;99.90
19164;DHT22;9714;51.208;4.242;2023-12-20T14:26:40;10.60;99.90
19164;DHT22;9714;51.208;4.242;2023-12-20T14:29:08;10.40;99.90
19164;DHT22;9714;51.208;4.242;2023-12-20T14:31:38;10.60;99.90
19164;DHT22;9714;51.208;4.242;2023-12-20T14:34:06;10.60;99.90
19164;DHT22;9714;51.208;4.242;2023-12-20T14:36:36;10.60;99.90
19164;DHT22;9714;51.208;4.242;2023-12-20T14:39:04;10.50;99.90
19164;DHT22;9714;51.208;4.242;2023-12-20T14:41:35;10.50;99.90
19164;DHT22;9714;51.208;4.242;2023-12-20T14:44:03;10.50;99.90
19164;DHT22;9714;51.208;4.242;2023-12-20T14:46:31;10.70;99.90
19164;DHT22;9714;51.208;4.242;2023-12-20T14:48:58;10.70;99.90
19164;DHT22;9714;51.208;4.242;2023-12-20T14:51:27;10.70;99.90
19164;DHT22;9714;51.208;4.242;2023-12-20T14:53:57;10.70;99.90
19164;DHT22;9714;51.208;4.242;2023-12-20T14:56:24;10.60;99.90
19164;DHT22;9714;51.208;4.242;2023-12-20T14:58:58;10.60;99.90
19164;DHT22;9714;51.208;4.242;2023-12-20T15:01:26;10.70;99.90
19164;DHT22;9714;51.208;4.242;2023-12-20T15:04:00;10.60;99.90
19164;DHT22;9714;51.208;4.242;2023-12-20T15:06:29;10.50;99.90
19164;DHT22;9714;51.208;4.242;2023-12-20T15:08:59;10.50;99.90
19164;DHT22;9714;51.208;4.242;2023-12-20T15:11:28;10.40;99.90
19164;DHT22;9714;51.208;4.242;2023-12-20T15:13:57;10.40;99.90
19164;DHT22;9714;51.208;4.242;2023-12-20T15:16:27;10.40;99.90
19164;DHT22;9714;51.208;4.242;2023-12-20T15:18:55;10.60;99.90
19164;DHT22;9714;51.208;4.242;2023-12-20T15:21:24;10.70;99.90
19164;DHT22;9714;51.208;4.242;2023-12-20T15:23:59;10.70;99.90
19164;DHT22;9714;51.208;4.242;2023-12-20T15:26:38;10.60;99.90
19164;DHT22;9714;51.208;4.242;2023-12-20T15:29:12;10.60;99.90
19164;DHT22;9714;51.208;4.242;2023-12-20T15:31:45;10.70;99.90
19164;DHT22;9714;51.208;4.242;2023-12-20T15:34:14;10.70;99.90
19164;DHT22;9714;51.208;4.242;2023-12-20T15:36:45;10.80;99.90
19164;DHT22;9714;51.208;4.242;2023-12-20T15:39:23;10.60;99.90
19164;DHT22;9714;51.208;4.242;2023-12-20T15:42:00;10.50;99.90
19164;DHT22;9714;51.208;4.242;2023-12-20T15:44:37;10.40;99.90
19164;DHT22;9714;51.208;4.242;2023-12-20T15:47:09;10.60;99.90
19164;DHT22;9714;51.208;4.242;2023-12-20T15:49:50;10.50;99.90
19164;DHT22;9714;51.208;4.242;2023-12-20T15:52:29;10.50;99.90
19164;DHT22;9714;51.208;4.242;2023-12-20T15:55:16;10.50;99.90
19164;DHT22;9714;51.208;4.242;2023-12-20T15:57:45;10.50;99.90
19164;DHT22;9714;51.208;4.242;2023-12-20T16:00:19;10.50;99.90
19164;DHT22;9714;51.208;4.242;2023-12-20T16:03:13;10.50;99.90
19164;DHT22;9714;51.208;4.242;2023-12-20T16:05:42;10.50;99.90
19164;DHT22;9714;51.208;4.242;2023-12-20T16:08:09;10.40;99.90
19164;DHT22;9714;51.208;4.242;2023-12-20T16:10:38;10.50;99.90
19164;DHT22;9714;51.208;4.242;2023-12-20T16:13:15;10.50;99.90
19164;DHT22;9714;51.208;4.242;2023-12-20T16:15:46;10.40;99.90
19164;DHT22;9714;51.208;4.242;2023-12-20T16:18:15;10.50;99.90